createdAt,value
2022-12-23T00:01:26.852Z,98868.25
2022-12-23T00:04:01.651Z,98788.88
2022-12-23T00:06:32.377Z,98789.69
2022-12-23T00:09:03.803Z,98839.13
2022-12-23T00:11:36.059Z,98813.66
2022-12-23T00:14:23.520Z,98785.63
2022-12-23T00:16:54.204Z,98784.75
2022-12-23T00:19:24.790Z,98777.94
2022-12-23T00:21:55.354Z,98801.81
2022-12-23T00:24:26.038Z,98797.56
2022-12-23T00:26:58.452Z,98773.38
2022-12-23T00:29:29.072Z,98800.25
2022-12-23T00:31:59.710Z,98802.78
2022-12-23T00:38:39.138Z,98774.72
2022-12-23T00:41:30.466Z,98773.88
2022-12-23T00:44:04.874Z,98698.91
2022-12-23T00:46:37.340Z,98773.84
2022-12-23T00:49:38.661Z,98773.03
2022-12-23T00:52:14.249Z,98776.47
2022-12-23T00:54:47.421Z,98766.31
2022-12-23T00:57:19.896Z,98755.25
2022-12-23T00:59:54.093Z,98764.63
2022-12-23T01:02:43.877Z,98750.97
2022-12-23T01:05:39.089Z,98740.81
2022-12-23T01:08:13.584Z,98725.50
2022-12-23T01:10:46.429Z,98589.97
2022-12-23T01:13:18.927Z,98717.97
2022-12-23T01:15:55.432Z,98737.59
2022-12-23T01:18:29.948Z,98698.28
2022-12-23T01:21:09.115Z,98742.81
2022-12-23T01:23:41.698Z,98730.03
2022-12-23T01:26:16.434Z,98711.97
2022-12-23T01:28:48.891Z,98733.34
2022-12-23T01:31:23.679Z,98685.59
2022-12-23T01:33:58.623Z,98698.44
2022-12-23T01:36:34.380Z,98669.38
2022-12-23T01:39:08.641Z,98681.47
2022-12-23T01:41:56.731Z,98669.66
2022-12-23T01:44:57.995Z,98667.91
2022-12-23T01:47:43.253Z,98606.28
2022-12-23T01:50:40.068Z,98677.38
2022-12-23T01:53:18.472Z,98625.22
2022-12-23T01:56:01.052Z,98662.94
2022-12-23T01:58:38.183Z,98616.75
2022-12-23T02:01:28.300Z,98574.84
2022-12-23T02:04:16.953Z,98649.50
2022-12-23T02:07:10.473Z,98569.06
2022-12-23T02:09:46.379Z,98626.34
2022-12-23T02:12:46.199Z,98617.00
2022-12-23T02:15:51.091Z,98593.94
2022-12-23T02:18:59.158Z,98527.75
2022-12-23T02:22:05.103Z,98579.44
2022-12-23T02:25:11.402Z,98612.81
2022-12-23T02:28:00.780Z,98599.94
2022-12-23T02:30:51.884Z,98622.91
2022-12-23T02:33:36.063Z,98569.53
2022-12-23T02:36:22.369Z,98519.09
2022-12-23T02:39:08.096Z,98611.53
2022-12-23T02:41:48.276Z,98587.88
2022-12-23T02:44:35.551Z,98595.59
2022-12-23T02:47:15.561Z,98560.66
2022-12-23T02:49:52.063Z,98576.00
2022-12-23T02:52:30.694Z,98569.19
2022-12-23T02:55:06.874Z,98555.56
2022-12-23T02:57:42.197Z,98564.09
2022-12-23T03:00:32.196Z,98526.56
2022-12-23T03:03:22.587Z,98545.31
2022-12-23T03:05:57.271Z,98518.00
2022-12-23T03:08:32.549Z,98507.75
2022-12-23T03:11:09.269Z,98482.06
2022-12-23T03:13:57.898Z,98506.03
2022-12-23T03:16:38.125Z,98516.41
2022-12-23T03:19:15.736Z,98525.75
2022-12-23T03:21:52.164Z,98508.69
2022-12-23T03:24:34.893Z,98504.38
2022-12-23T03:27:12.927Z,98504.41
2022-12-23T03:29:51.853Z,98497.53
2022-12-23T03:32:26.808Z,98490.72
2022-12-23T03:35:03.200Z,98483.88
2022-12-23T03:37:40.719Z,98406.00
2022-12-23T03:40:20.061Z,98489.78
2022-12-23T03:42:58.954Z,98447.91
2022-12-23T03:45:39.446Z,98465.09
2022-12-23T03:48:18.767Z,98458.09
2022-12-23T03:50:55.983Z,98464.22
2022-12-23T03:53:33.951Z,98485.53
2022-12-23T03:56:09.783Z,98471.84
2022-12-23T03:58:48.156Z,98453.09
2022-12-23T04:01:28.646Z,98445.41
2022-12-23T04:04:08.208Z,98455.63
2022-12-23T04:06:51.456Z,98449.63
2022-12-23T04:09:26.399Z,98451.44
2022-12-23T04:11:59.312Z,98397.50
2022-12-23T04:14:34.312Z,98442.88
2022-12-23T04:17:07.054Z,98432.66
2022-12-23T04:19:39.247Z,98461.59
2022-12-23T04:22:13.991Z,98444.53
2022-12-23T04:24:46.504Z,98444.53
2022-12-23T04:27:19.661Z,98442.00
2022-12-23T04:29:52.154Z,98435.94
2022-12-23T04:32:25.059Z,98442.88
2022-12-23T04:34:58.043Z,98452.25
2022-12-23T04:37:33.414Z,98461.66
2022-12-23T04:40:06.047Z,98454.03
2022-12-23T04:42:39.241Z,98449.75
2022-12-23T04:45:13.494Z,98459.13
2022-12-23T04:47:47.136Z,98441.19
2022-12-23T04:50:20.197Z,98441.91
2022-12-23T04:52:54.796Z,98444.66
2022-12-23T04:55:28.400Z,98460.09
2022-12-23T04:58:00.651Z,98451.53
2022-12-23T05:00:38.927Z,98446.50
2022-12-23T05:03:11.821Z,98455.03
2022-12-23T05:05:48.336Z,98449.91
2022-12-23T05:08:22.140Z,98448.16
2022-12-23T05:10:54.778Z,98439.47
2022-12-23T05:13:27.246Z,98460.09
2022-12-23T05:16:00.937Z,98468.59
2022-12-23T05:18:34.615Z,98460.09
2022-12-23T05:21:07.771Z,98451.59
2022-12-23T05:23:42.152Z,98443.84
2022-12-23T05:26:17.220Z,98431.09
2022-12-23T05:28:51.776Z,98447.34
2022-12-23T05:31:23.680Z,98427.63
2022-12-23T05:34:11.708Z,98448.13
2022-12-23T05:36:44.771Z,98456.66
2022-12-23T05:39:37.491Z,98434.50
2022-12-23T05:42:26.841Z,98413.94
2022-12-23T05:45:01.910Z,98434.47
2022-12-23T05:47:41.933Z,98401.84
2022-12-23T05:50:15.472Z,98448.09
2022-12-23T05:52:48.881Z,98404.44
2022-12-23T05:55:23.556Z,98448.97
2022-12-23T05:57:56.587Z,98462.50
2022-12-23T06:00:31.620Z,98459.97
2022-12-23T06:03:07.519Z,98479.59
2022-12-23T06:06:01.881Z,98466.81
2022-12-23T06:08:35.422Z,98478.75
2022-12-23T06:11:15.592Z,98463.44
2022-12-23T06:13:48.205Z,98467.69
2022-12-23T06:16:24.758Z,98454.88
2022-12-23T06:19:00.611Z,98456.59
2022-12-23T06:21:34.324Z,98459.97
2022-12-23T06:24:06.666Z,98427.38
2022-12-23T06:26:41.203Z,98485.50
2022-12-23T06:29:15.705Z,98468.41
2022-12-23T06:31:48.292Z,98470.97
2022-12-23T06:34:20.808Z,98482.84
2022-12-23T06:36:53.408Z,98464.81
2022-12-23T06:39:25.748Z,98463.19
2022-12-23T06:41:59.911Z,98453.72
2022-12-23T06:44:33.524Z,98469.13
2022-12-23T06:47:09.331Z,98469.94
2022-12-23T06:49:45.345Z,98483.59
2022-12-23T06:52:23.286Z,98465.66
2022-12-23T06:55:01.772Z,98417.81
2022-12-23T06:57:39.540Z,98288.44
2022-12-23T07:00:32.168Z,98449.47
2022-12-23T07:03:20.847Z,98419.53
2022-12-23T07:05:51.602Z,98442.59
2022-12-23T07:08:22.445Z,98402.44
2022-12-23T07:10:53.212Z,98434.13
2022-12-23T07:13:25.620Z,98438.41
2022-12-23T07:15:56.513Z,98438.41
2022-12-23T07:18:45.242Z,98438.41
2022-12-23T07:21:33.837Z,98431.59
2022-12-23T07:24:06.408Z,98413.69
2022-12-23T07:26:37.203Z,98417.09
2022-12-23T07:29:28.076Z,98425.63
2022-12-23T07:31:59.354Z,98414.53
2022-12-23T07:34:30.124Z,98429.09
2022-12-23T07:37:00.862Z,98429.94
2022-12-23T07:39:34.115Z,98456.38
2022-12-23T07:45:40.762Z,98445.53
2022-12-23T07:48:12.501Z,98453.28
2022-12-23T07:50:43.155Z,98455.75
2022-12-23T07:53:14.492Z,98405.28
2022-12-23T07:55:45.201Z,98453.19
2022-12-23T07:58:15.946Z,98461.72
2022-12-23T08:00:48.243Z,98454.03
2022-12-23T08:03:19.201Z,98454.03
2022-12-23T08:05:49.864Z,98460.88
2022-12-23T08:08:20.858Z,98454.91
2022-12-23T08:10:51.505Z,98452.34
2022-12-23T08:13:22.456Z,98432.66
2022-12-23T08:15:59.591Z,98302.69
2022-12-23T08:21:26.331Z,98456.66
2022-12-23T08:23:57.120Z,98443.81
2022-12-23T08:26:28.316Z,98447.25
2022-12-23T08:28:59.374Z,98454.09
2022-12-23T08:31:33.670Z,98444.72
2022-12-23T08:34:06.636Z,98453.28
2022-12-23T08:37:07.483Z,98437.91
2022-12-23T08:39:38.677Z,98451.50
2022-12-23T08:45:21.674Z,98438.69
2022-12-23T08:47:54.244Z,98431.03
2022-12-23T08:50:28.714Z,98424.16
2022-12-23T08:53:02.057Z,98414.66
2022-12-23T08:55:36.662Z,98400.13
2022-12-23T08:58:07.405Z,98427.50
2022-12-23T09:00:40.596Z,98441.16
2022-12-23T09:03:31.006Z,98424.09
2022-12-23T09:06:01.854Z,98400.06
2022-12-23T09:08:32.617Z,98395.91
2022-12-23T09:11:07.731Z,98427.50
2022-12-23T09:13:38.661Z,98427.50
2022-12-23T09:16:10.627Z,98412.19
2022-12-23T09:18:43.366Z,98410.47
2022-12-23T09:21:35.674Z,98431.75
2022-12-23T09:24:09.792Z,98422.38
2022-12-23T09:26:58.380Z,98419.84
2022-12-23T09:29:29.598Z,98420.69
2022-12-23T09:34:58.602Z,98416.41
2022-12-23T09:37:29.329Z,98426.69
2022-12-23T09:40:21.032Z,98419.06
2022-12-23T09:43:07.823Z,98414.75
2022-12-23T09:46:06.505Z,98456.63
2022-12-23T09:51:56.702Z,98408.81
2022-12-23T09:54:30.763Z,98400.50
2022-12-23T09:57:03.708Z,98438.00
2022-12-23T10:00:05.715Z,98415.81
2022-12-23T10:02:48.227Z,98454.25
2022-12-23T10:05:33.633Z,98382.50
2022-12-23T10:08:12.910Z,98394.50
2022-12-23T10:11:02.852Z,98409.09
2022-12-23T10:13:39.705Z,98439.88
2022-12-23T10:16:29.698Z,98391.13
2022-12-23T10:19:21.696Z,98380.03
2022-12-23T10:21:55.386Z,98400.53
2022-12-23T10:24:29.236Z,98397.13
2022-12-23T10:27:03.659Z,98453.53
2022-12-23T10:32:42.941Z,98371.47
2022-12-23T10:35:46.560Z,98444.16
2022-12-23T10:38:31.919Z,98410.91
2022-12-23T10:41:24.029Z,98415.97
2022-12-23T10:44:12.921Z,98449.34
2022-12-23T10:46:55.817Z,98427.88
2022-12-23T10:52:32.718Z,98448.50
2022-12-23T10:55:03.555Z,98464.75
2022-12-23T10:57:36.918Z,98409.25
2022-12-23T11:00:20.841Z,98445.91
2022-12-23T11:06:06.747Z,98467.34
2022-12-23T11:08:41.710Z,98475.84
2022-12-23T11:11:15.437Z,98469.03
2022-12-23T11:13:51.963Z,98480.97
2022-12-23T11:16:27.763Z,98400.56
2022-12-23T11:19:01.799Z,98433.16
2022-12-23T11:21:34.308Z,98466.47
2022-12-23T11:24:20.270Z,98462.22
2022-12-23T11:26:59.651Z,98446.88
2022-12-23T11:29:40.771Z,98446.81
2022-12-23T11:32:31.403Z,98470.78
2022-12-23T11:35:04.820Z,98492.09
2022-12-23T11:37:56.862Z,98439.94
2022-12-23T11:43:30.120Z,98462.22
2022-12-23T11:46:31.734Z,98491.22
2022-12-23T11:49:19.706Z,98475.91
2022-12-23T11:51:52.076Z,98482.72
2022-12-23T11:54:23.799Z,98465.66
2022-12-23T11:59:58.470Z,98492.94
2022-12-23T12:02:38.003Z,98402.31
2022-12-23T12:05:20.941Z,98469.09
2022-12-23T12:07:55.226Z,98484.47
2022-12-23T12:10:31.383Z,98472.53
2022-12-23T12:13:06.767Z,98446.84
2022-12-23T12:15:46.313Z,98414.28
2022-12-23T12:18:22.408Z,98458.75
2022-12-23T12:21:01.622Z,98501.53
2022-12-23T12:23:44.999Z,98477.69
2022-12-23T12:26:21.835Z,98412.63
2022-12-23T12:28:59.561Z,98438.31
2022-12-23T12:31:37.155Z,98446.88
2022-12-23T12:34:30.912Z,98467.41
2022-12-23T12:37:09.793Z,98494.72
2022-12-23T12:39:45.727Z,98477.72
2022-12-23T12:42:23.274Z,98493.09
2022-12-23T12:45:09.195Z,98500.78
2022-12-23T12:47:53.735Z,98416.94
2022-12-23T12:50:32.678Z,98480.28
2022-12-23T12:53:13.960Z,98476.81
2022-12-23T12:55:48.471Z,98422.91
2022-12-23T12:58:23.816Z,98449.47
2022-12-23T13:01:08.013Z,98474.28
2022-12-23T13:04:03.180Z,98511.00
2022-12-23T13:06:46.491Z,98500.78
2022-12-23T13:09:30.386Z,98481.94
2022-12-23T13:12:11.323Z,98536.63
2022-12-23T13:14:58.685Z,98494.81
2022-12-23T13:17:35.781Z,98496.56
2022-12-23T13:20:20.303Z,98517.06
2022-12-23T13:23:42.159Z,98520.47
2022-12-23T13:26:18.508Z,98515.38
2022-12-23T13:29:00.031Z,98500.84
2022-12-23T13:31:52.877Z,98522.19
2022-12-23T13:34:49.310Z,98474.28
2022-12-23T13:37:30.416Z,98473.44
2022-12-23T13:40:14.958Z,98535.91
2022-12-23T13:42:51.793Z,98499.22
2022-12-23T13:45:24.155Z,98535.97
2022-12-23T13:48:08.791Z,98472.72
2022-12-23T13:50:46.294Z,98459.84
2022-12-23T13:53:27.637Z,98494.91
2022-12-23T13:56:13.823Z,98517.16
2022-12-23T13:58:45.218Z,98501.78
2022-12-23T14:01:38.378Z,98462.41
2022-12-23T14:04:37.519Z,98502.63
2022-12-23T14:07:21.841Z,98497.50
2022-12-23T14:09:56.798Z,98464.16
2022-12-23T14:12:31.604Z,98500.06
2022-12-23T14:15:30.390Z,98518.03
2022-12-23T14:18:15.505Z,98498.38
2022-12-23T14:20:53.255Z,98504.34
2022-12-23T14:23:41.784Z,98412.88
2022-12-23T14:26:47.310Z,98426.56
2022-12-23T14:29:48.604Z,98524.91
2022-12-23T14:32:27.899Z,98454.78
2022-12-23T14:35:42.710Z,98503.56
2022-12-23T14:38:26.793Z,98481.28
2022-12-23T14:41:39.364Z,98520.63
2022-12-23T14:44:23.380Z,98518.94
2022-12-23T14:47:00.676Z,98508.66
2022-12-23T14:49:46.437Z,98519.81
2022-12-23T14:52:55.018Z,98510.41
2022-12-23T14:55:47.854Z,98542.00
2022-12-23T14:58:34.352Z,98530.88
2022-12-23T15:01:12.052Z,98536.00
2022-12-23T15:03:54.575Z,98472.72
2022-12-23T15:06:36.313Z,98537.75
2022-12-23T15:09:09.866Z,98545.41
2022-12-23T15:11:42.960Z,98530.88
2022-12-23T15:14:21.453Z,98532.63
2022-12-23T15:16:52.170Z,98532.63
2022-12-23T15:19:27.674Z,98521.50
2022-12-23T15:22:20.835Z,98530.06
2022-12-23T15:24:53.084Z,98501.81
2022-12-23T15:27:27.882Z,98519.78
2022-12-23T15:30:00.223Z,98506.97
2022-12-23T15:32:32.029Z,98494.97
2022-12-23T15:35:08.868Z,98500.13
2022-12-23T15:37:57.896Z,98521.50
2022-12-23T15:40:30.979Z,98526.63
2022-12-23T15:43:02.038Z,98527.50
2022-12-23T15:45:38.782Z,98518.09
2022-12-23T15:48:25.310Z,98476.16
2022-12-23T15:51:02.027Z,98526.63
2022-12-23T15:53:36.032Z,98512.13
2022-12-23T15:56:09.920Z,98541.16
2022-12-23T15:58:44.820Z,98541.19
2022-12-23T16:01:39.145Z,98540.31
2022-12-23T16:04:28.760Z,98554.84
2022-12-23T16:07:01.230Z,98539.47
2022-12-23T16:09:39.245Z,98548.03
2022-12-23T16:12:28.154Z,98438.53
2022-12-23T16:15:01.464Z,98462.47
2022-12-23T16:17:36.743Z,98582.19
2022-12-23T16:20:27.219Z,98568.50
2022-12-23T16:23:04.150Z,98578.81
2022-12-23T16:25:36.945Z,98569.38
2022-12-23T16:28:10.508Z,98575.34
2022-12-23T16:30:42.774Z,98573.66
2022-12-23T16:33:29.837Z,98529.13
2022-12-23T16:36:21.204Z,98570.22
2022-12-23T16:38:56.259Z,98588.16
2022-12-23T16:41:26.891Z,98558.16
2022-12-23T16:43:58.933Z,98592.41
2022-12-23T16:46:36.469Z,98416.16
2022-12-23T16:49:11.814Z,98534.22
2022-12-23T16:51:43.384Z,98512.81
2022-12-23T16:54:17.655Z,98538.53
2022-12-23T16:56:49.202Z,98594.13
2022-12-23T16:59:20.706Z,98598.41
2022-12-23T17:01:54.562Z,98558.16
2022-12-23T17:04:28.612Z,98583.81
2022-12-23T17:06:59.274Z,98585.50
2022-12-23T17:09:31.580Z,98589.81
2022-12-23T17:12:02.251Z,98607.75
2022-12-23T17:14:33.088Z,98540.19
2022-12-23T17:17:04.359Z,98604.34
2022-12-23T17:19:35.076Z,98612.03
2022-12-23T17:22:06.579Z,98594.06
2022-12-23T17:24:38.970Z,98549.59
2022-12-23T17:27:15.691Z,98609.47
2022-12-23T17:29:46.617Z,98616.31
2022-12-23T17:32:19.682Z,98559.78
2022-12-23T17:34:50.557Z,98622.25
2022-12-23T17:37:22.556Z,98612.84
2022-12-23T17:39:57.579Z,98605.13
2022-12-23T17:42:28.241Z,98609.41
2022-12-23T17:44:58.774Z,98609.41
2022-12-23T17:47:29.944Z,98594.03
2022-12-23T17:50:00.605Z,98576.91
2022-12-23T17:52:31.232Z,98607.69
2022-12-23T17:55:03.448Z,98602.56
2022-12-23T17:57:34.335Z,98616.22
2022-12-23T18:00:05.175Z,98611.09
2022-12-23T18:02:36.348Z,98516.88
2022-12-23T18:05:23.480Z,98621.34
2022-12-23T18:07:58.018Z,98617.91
2022-12-23T18:10:33.382Z,98598.31
2022-12-23T18:13:05.989Z,98612.78
2022-12-23T18:15:39.403Z,98623.09
2022-12-23T18:18:22.309Z,98536.72
2022-12-23T18:20:59.213Z,98570.09
2022-12-23T18:23:32.097Z,98629.13
2022-12-23T18:26:04.407Z,98576.09
2022-12-23T18:28:34.983Z,98618.84
2022-12-23T18:31:05.704Z,98616.31
2022-12-23T18:33:36.656Z,98612.03
2022-12-23T18:36:07.720Z,98609.44
2022-12-23T18:38:38.359Z,98588.91
2022-12-23T18:41:14.795Z,98600.94
2022-12-23T18:43:45.372Z,98613.75
2022-12-23T18:46:16.173Z,98619.72
2022-12-23T18:48:47.558Z,98621.41
2022-12-23T18:51:19.778Z,98618.00
2022-12-23T18:53:51.047Z,98587.16
2022-12-23T18:56:24.935Z,98618.88
2022-12-23T18:58:55.601Z,98601.78
2022-12-23T19:01:26.560Z,98609.41
2022-12-23T19:03:57.134Z,98619.59
2022-12-23T19:06:27.706Z,98621.28
2022-12-23T19:08:58.307Z,98617.81
2022-12-23T19:11:30.660Z,98621.22
2022-12-23T19:14:01.556Z,98630.63
2022-12-23T19:16:32.405Z,98614.31
2022-12-23T19:19:03.021Z,98588.75
2022-12-23T19:21:33.660Z,98617.88
2022-12-23T19:24:04.245Z,98617.88
2022-12-23T19:26:36.477Z,98617.03
2022-12-23T19:29:07.058Z,98616.16
2022-12-23T19:31:37.648Z,98591.38
2022-12-23T19:34:12.849Z,98618.72
2022-12-23T19:36:46.250Z,98638.38
2022-12-23T19:39:19.101Z,98634.09
2022-12-23T19:41:51.414Z,98610.06
2022-12-23T19:44:21.979Z,98629.00
2022-12-23T19:46:52.664Z,98632.41
2022-12-23T19:49:23.358Z,98626.44
2022-12-23T19:51:53.906Z,98624.72
2022-12-23T19:54:24.553Z,98641.78
2022-12-23T19:56:56.912Z,98625.56
2022-12-23T19:59:27.595Z,98638.34
2022-12-23T20:01:58.457Z,98625.50
2022-12-23T20:04:29.163Z,98622.94
2022-12-23T20:06:59.712Z,98641.69
2022-12-23T20:09:30.414Z,98629.69
2022-12-23T20:12:02.653Z,98621.09
2022-12-23T20:14:34.344Z,98638.16
2022-12-23T20:17:05.456Z,98585.88
2022-12-23T20:19:39.080Z,98632.97
2022-12-23T20:22:16.289Z,98631.25
2022-12-23T20:24:46.982Z,98591.81
2022-12-23T20:27:24.297Z,98628.69
2022-12-23T20:29:58.405Z,98629.53
2022-12-23T20:32:28.988Z,98626.03
2022-12-23T20:34:59.988Z,98634.63
2022-12-23T20:37:30.642Z,98646.56
2022-12-23T20:40:01.359Z,98620.94
2022-12-23T20:42:33.715Z,98624.31
2022-12-23T20:45:04.225Z,98638.00
2022-12-23T20:47:34.871Z,98648.22
2022-12-23T20:50:05.552Z,98646.50
2022-12-23T20:52:36.133Z,98651.63
2022-12-23T20:55:07.452Z,98604.47
2022-12-23T20:57:39.724Z,98678.00
2022-12-23T21:00:14.677Z,98648.09
2022-12-23T21:02:45.347Z,98654.91
2022-12-23T21:05:15.834Z,98646.41
2022-12-23T21:07:46.332Z,98648.97
2022-12-23T21:10:16.924Z,98653.19
2022-12-23T21:12:49.089Z,98648.00
2022-12-23T21:15:19.730Z,98661.69
2022-12-23T21:17:50.378Z,98656.59
2022-12-23T21:20:20.982Z,98622.28
2022-12-23T21:22:51.594Z,98654.00
2022-12-23T21:25:22.199Z,98663.41
2022-12-23T21:27:55.101Z,98665.13
2022-12-23T21:30:25.661Z,98665.97
2022-12-23T21:33:00.978Z,98665.13
2022-12-23T21:35:31.518Z,98664.25
2022-12-23T21:38:02.046Z,98662.53
2022-12-23T21:40:32.620Z,98635.88
2022-12-23T21:43:08.676Z,98665.94
2022-12-23T21:45:39.547Z,98683.81
2022-12-23T21:48:10.590Z,98676.97
2022-12-23T21:50:41.155Z,98687.16
2022-12-23T21:53:11.670Z,98683.78
2022-12-23T21:55:42.230Z,98681.19
2022-12-23T21:58:31.174Z,98683.72
2022-12-23T22:01:02.151Z,98686.34
2022-12-23T22:03:32.900Z,98700.84
2022-12-23T22:06:10.467Z,98712.81
2022-12-23T22:08:41.914Z,98703.38
2022-12-23T22:11:30.898Z,98707.69
2022-12-23T22:14:04.161Z,98700.78
2022-12-23T22:16:35.487Z,98724.75
2022-12-23T22:19:08.040Z,98724.75
2022-12-23T22:21:40.419Z,98735.84
2022-12-23T22:24:11.647Z,98707.56
2022-12-23T22:26:42.796Z,98731.63
2022-12-23T22:29:15.261Z,98723.88
2022-12-23T22:32:04.349Z,98734.94
2022-12-23T22:34:52.120Z,98741.91
2022-12-23T22:37:39.269Z,98749.59
2022-12-23T22:40:11.433Z,98792.25
2022-12-23T22:42:59.289Z,98733.28
2022-12-23T22:45:31.437Z,98731.63
2022-12-23T22:48:02.306Z,98755.69
2022-12-23T22:50:32.883Z,98759.09
2022-12-23T22:53:03.577Z,98752.25
2022-12-23T22:55:50.723Z,98758.31
2022-12-23T22:58:21.263Z,98732.56
2022-12-23T23:00:53.481Z,98745.47
2022-12-23T23:03:24.664Z,98743.72
2022-12-23T23:06:08.541Z,98738.59
2022-12-23T23:08:47.655Z,98717.09
2022-12-23T23:11:21.302Z,98732.50
2022-12-23T23:13:52.016Z,98723.19
2022-12-23T23:16:42.190Z,98741.09
2022-12-23T23:19:16.176Z,98737.69
2022-12-23T23:21:49.262Z,98730.91
2022-12-23T23:24:29.366Z,98729.19
2022-12-23T23:35:10.870Z,98614.94
2022-12-23T23:37:59.659Z,98718.06
2022-12-23T23:40:35.798Z,98734.28
2022-12-23T23:43:11.714Z,98740.31
2022-12-23T23:45:44.428Z,98733.50
2022-12-23T23:48:18.299Z,98749.78
2022-12-23T23:51:02.968Z,98728.41
2022-12-23T23:53:36.613Z,98676.94
2022-12-23T23:56:19.131Z,98714.75
2022-12-23T23:58:56.798Z,98747.31
